Carlsbad, CA (92008)

11:55 PM PDT on October 21, 2014 (GMT -0700)
Carlsbad - Sunnyhill | Change Station
CLOSE
Current Station
Personal Weather Station
Location: Carlsbad, CA
Elevation: 190 ft
Nearby Weather Stations

Elev 190 ft 33.15 °N, 117.32 °W | Updated 43 seconds ago

Partly Cloudy
Partly Cloudy
65.3 °F
Feels Like 65.3 °F
N
0.0
Wind Variable Wind from WNW

Today
High -- | Low -- °F
--% Chance of Precip.
Yesterday
High -- | Low -- °F
Precip. -- in
6:58 AM 6:08 PM
Waning Crescent, 3% visible
Pressure 29.88 in
Visibility 7.0 miles
Clouds Few 1100 ft
Dew Point 63 °F
Humidity 91%
Rainfall 0.00 in
Snow Depth Not available.
UV 0 out of 12
Pollen 3.40 out of 12
Ozone Good
PM2.5 Good
Flu Activity Sporadic
SPECI KCRQ 220633Z 00000KT 7SM FEW011 18/16 A2988 RMK AO2 T01830161

More Conditions Fewer Conditions

Pressure 29.88 in
Visibility 7.0 miles
Clouds Few 1100 ft
Dew Point 63 °F
Humidity 91%
Rainfall 0.00 in
Snow Depth Not available.
UV 0 out of 12
Pollen 3.40 out of 12
Ozone Good
PM2.5 Good
Flu Activity Sporadic
SPECI KCRQ 220633Z 00000KT 7SM FEW011 18/16 A2988 RMK AO2 T01830161

More Conditions Fewer Conditions

10-Day Weather Forecast

Almanac

Astronomy

Oct. 21, 2014 Rise Set
Actual Time 6:58 AM PDT 6:08 PM PDT
Civil Twilight 6:33 AM PDT 6:33 PM PDT
Nautical Twilight 6:04 AM PDT 7:02 PM PDT
Astronomical Twilight 5:35 AM PDT 7:31 PM PDT
Moon 4:53 AM PDT (10/21) 5:00 PM PDT (10/21)
Length of Visible Light 12h 00m
Length of Day
11h 10m
Tomorrow will be 1m 54s shorter.
Waning Crescent, 3% of the Moon is Illuminated
Oct 22
Waning Crescent
Oct 23
New
Oct 30
First Quarter
Nov 6
Full
Nov 14
Last Quarter

Community

WunderPhotos

Upload Photos

1,763,884 photos uploaded!

Nearby

Air Quality

  Air Quality AQ Index Pollutant
Yesterday Good
OZONE
Yesterday Good
PM2.5
Current Good
PM2.5
Current Good
OZONE
Tuesday Good
PM2.5
Tuesday Good
OZONE
Wednesday Good
PM2.5
Wednesday Good
OZONE

Snow Depth

Station Depth Elevation
Virginia Lakes Ridge 0 in 9200 ft
Leavitt Lake 1 in 9400 ft
Leavitt Meadows 1 in 7200 ft
Sonora Pass 0 in 8800 ft
Summit Meadow 1 in 9122 ft

Earthquake Activity

City Distance Mag. Time & Date
No recent earthquake activity has been reported nearby.
Minimum magnitude displayed is 2.5.

Coastal Water Temperatures

Place Temperature
La Jolla, CA 71.1 °F
San Diego, CA 73.9 °F

Nearby Weather Stations